Charlotte Douglas International Airport
KCLT : now visible

Airfield :











YOU CAN JOIN US ON...

 
LOGIN :

Register | Disclaimer

   EN    FR    IT 

 









Legend :    VFR   Marginal VFR   IFR   Intensive IFR   Very Intensive IFR
Visi :
Ceiling :
>= 8 km
>= 3000ft
5 to 8 km
1000 to 3000 ft
1500m to 5 km
500 to 1000 ft
800 to 1500m
200 to 500 ft
< 800m
< 200 ft
Symbols :   Thunderstorms  Fog  Heavy snow  Heavy precipitations  Wind > 20 kt






- Airport Elevation : 748 ft
- IATA code : CLT


KCLT - Charlotte Douglas International

CURRENT METAR :
  • 291452Z 21023G39KT 7SM -RA BKN018 BKN025 OVC038 24/22 A2962 RMK AO2 PK WND 19043/1433 RAE18B35 SLP022 P0000 60003 T02390217 55005

EXPIRED METARs :
  • 291352Z 19026G40KT 9SM -RA SCT018 BKN023 OVC041 23/21 A2959 RMK AO2 PK WND 16050/1326 RAB09 SLP011 P0001 T02330211
  • 291325Z 17031G46KT 5SM -RA BR SCT018 BKN026 OVC038 23/21 A2955 RMK AO2 PK WND 19046/1321 RAB09 P0000 T02330211 $
  • 291252Z 17030G41KT 10SM BKN014 OVC023 23/21 A2957 RMK AO2 PK WND 17043/1242 RAE46 SLP006 P0002 T02330211 $

TAF KCLT
Valid from the 29 at 15:00 until the 30 at 18:00 UTC


291435Z 2915/3018 20026G40KT 6SM -SHRA BR SCT015 BKN025 OVC040
FM291600 22020G30KT P6SM VCSH SCT018 BKN028 WS020/23055KT
FM291800 23015G25KT P6SM VCSH SCT035
FM300100 24008G16KT P6SM SCT060
FM301100 33008G16KT P6SM FEW050
KZTL FIR / North America



MET'MAP, your aeronautical weather chart ! - Copyright ORBIFLY December 2007 - Disclaimer

ORBIFLY MET'MAP TEAM :

Programming & Development : Alexandra Zaïnal
Concept & original design : Baudouin d'Aumeries
Assistance for programming : Marc-Olivier Méhu
Technical & hardware support : Manuel Goepfert

Contact : metmap@orbifly.com




SOURCES & CREDITS :

   NOAA       Earth
Advisory